Time;durP1;ratioP1;P1;durP2;ratioP2;P2;SDS_P1;SDS_P2;PMS_P1;PMS_P2;Temp;Humidity;BMP_temperature;BMP_pressure;BME280_temperature;BME280_humidity;BME280_pressure;Samples;Min_cycle;Max_cycle;Signal;HPM_P1;HPM_P2
2021/10/19 00:00:50;;;;;;;;;13.50;12.75;;;;;18.23;72.35;101665.25;5079200;27;45402;-79
2021/10/19 00:03:15;;;;;;;;;14.00;12.25;;;;;18.25;71.96;101666.16;5078327;27;45340;-78
2021/10/19 00:05:41;;;;;;;;;13.75;13.25;;;;;18.27;72.30;101658.34;5078727;28;45421;-76
2021/10/19 00:08:07;;;;;;;;;13.00;12.50;;;;;18.28;72.19;101670.59;5077281;27;45481;-78
2021/10/19 00:10:32;;;;;;;;;10.75;10.25;;;;;18.28;71.70;101668.84;5078153;27;45336;-79
2021/10/19 00:12:58;;;;;;;;;13.50;13.50;;;;;18.22;71.79;101653.84;5078836;27;45448;-79
2021/10/19 00:15:24;;;;;;;;;11.00;8.50;;;;;18.25;72.06;101653.94;5079633;27;45394;-77
2021/10/19 00:17:50;;;;;;;;;12.25;11.25;;;;;18.30;71.59;101656.69;5079407;28;45488;-77
2021/10/19 00:20:16;;;;;;;;;15.50;13.75;;;;;18.25;71.63;101651.31;5077891;27;45185;-77
2021/10/19 00:22:42;;;;;;;;;10.50;10.00;;;;;18.29;71.09;101640.94;5078514;28;45443;-79
2021/10/19 00:25:09;;;;;;;;;14.25;11.75;;;;;18.25;71.75;101646.06;5078631;28;45172;-79
2021/10/19 00:27:35;;;;;;;;;14.75;12.75;;;;;18.31;71.74;101649.69;5078398;27;45466;-77
2021/10/19 00:30:03;;;;;;;;;16.00;12.00;;;;;18.29;71.21;101633.06;5078136;28;45722;-77
2021/10/19 00:32:29;;;;;;;;;14.75;12.25;;;;;18.30;71.08;101633.09;5078010;28;45414;-79
2021/10/19 00:34:54;;;;;;;;;11.25;9.25;;;;;18.29;71.48;101631.31;5078438;28;45555;-76
2021/10/19 00:37:20;;;;;;;;;12.75;12.25;;;;;18.34;71.46;101639.28;5077531;28;45421;-78
2021/10/19 00:39:46;;;;;;;;;9.75;9.50;;;;;18.33;70.62;101635.81;5078824;28;45305;-77
2021/10/19 00:42:12;;;;;;;;;12.50;12.50;;;;;18.32;71.03;101633.13;5081479;28;46003;-78
2021/10/19 00:44:38;;;;;;;;;10.25;10.25;;;;;18.32;70.94;101649.75;5080817;27;45249;-78
2021/10/19 00:47:03;;;;;;;;;14.00;10.75;;;;;18.34;71.01;101647.16;5077870;27;46821;-78
2021/10/19 00:49:29;;;;;;;;;8.50;8.25;;;;;18.32;71.05;101651.47;5077514;28;45394;-79
2021/10/19 00:51:55;;;;;;;;;10.25;10.00;;;;;18.33;70.85;101648.00;5078088;28;45271;-79
2021/10/19 00:54:24;;;;;;;;;11.75;10.75;;;;;18.34;70.70;101661.19;5077829;28;45592;-78
2021/10/19 00:56:53;;;;;;;;;13.50;12.00;;;;;18.34;70.53;101665.50;5077547;27;46145;-79
2021/10/19 00:59:22;;;;;;;;;8.00;8.00;;;;;18.32;70.88;101660.25;5077457;28;45857;-78
2021/10/19 01:01:48;;;;;;;;;9.50;8.00;;;;;18.31;70.78;101665.41;5077818;28;45453;-79
2021/10/19 01:04:14;;;;;;;;;10.75;10.75;;;;;18.34;70.55;101668.13;5077627;28;45284;-79
2021/10/19 01:06:40;;;;;;;;;12.50;11.00;;;;;18.30;70.54;101656.69;5077369;28;45529;-79
2021/10/19 01:09:08;;;;;;;;;12.00;9.75;;;;;18.34;70.79;101665.50;5077573;28;45267;-78
2021/10/19 01:11:33;;;;;;;;;9.00;9.00;;;;;18.38;70.48;101668.25;5077744;27;45341;-77
2021/10/19 01:13:59;;;;;;;;;11.50;10.50;;;;;18.40;70.45;101676.19;5077739;28;45237;-79
2021/10/19 01:16:25;;;;;;;;;10.50;7.00;;;;;18.38;70.11;101675.25;5077174;28;46205;-76
2021/10/19 01:18:50;;;;;;;;;11.50;11.50;;;;;18.40;70.47;101676.19;5077335;28;45356;-77
2021/10/19 01:21:16;;;;;;;;;9.50;9.25;;;;;18.35;70.37;101660.34;5077085;28;45423;-80
2021/10/19 01:23:41;;;;;;;;;12.25;12.25;;;;;18.40;70.69;101665.69;5077529;27;45435;-78
2021/10/19 01:26:09;;;;;;;;;10.50;10.50;;;;;18.37;70.65;101658.59;5077143;28;45346;-77
2021/10/19 01:28:37;;;;;;;;;11.00;11.00;;;;;18.40;70.74;101663.94;5077426;27;45812;-76
2021/10/19 01:31:05;;;;;;;;;13.00;11.50;;;;;18.42;70.83;101658.72;5078702;28;45354;-79
2021/10/19 01:33:30;;;;;;;;;9.50;9.50;;;;;18.43;70.45;101651.78;5080222;28;45601;-77
2021/10/19 01:35:56;;;;;;;;;14.75;9.75;;;;;18.33;70.97;101637.50;5076922;27;46119;-77
2021/10/19 01:38:26;;;;;;;;;14.00;12.25;;;;;18.42;70.68;101645.63;5076643;27;45405;-77
2021/10/19 01:40:53;;;;;;;;;12.25;10.25;;;;;18.39;70.86;101646.44;5077157;28;45398;-77
2021/10/19 01:43:21;;;;;;;;;12.00;8.00;;;;;18.36;70.76;101638.47;5077088;28;45288;-77
2021/10/19 01:45:49;;;;;;;;;9.00;8.75;;;;;18.40;71.29;101648.22;5076786;27;45408;-78
2021/10/19 01:48:15;;;;;;;;;7.75;7.75;;;;;18.41;70.93;101652.59;5076856;28;45323;-77
2021/10/19 01:50:40;;;;;;;;;12.75;12.50;;;;;18.42;71.15;101653.47;5076920;28;45295;-77
2021/10/19 01:53:07;;;;;;;;;10.25;9.75;;;;;18.39;71.13;101658.66;5077425;28;45620;-77
2021/10/19 01:55:33;;;;;;;;;11.25;9.25;;;;;18.38;71.36;101660.38;5076434;28;45209;-77
2021/10/19 01:57:59;;;;;;;;;8.75;8.75;;;;;18.37;71.57;101652.50;5058499;28;45422;-77
2021/10/19 02:00:25;;;;;;;;;12.00;9.25;;;;;18.40;71.44;101660.44;5076411;28;45402;-77
2021/10/19 02:02:50;;;;;;;;;11.25;10.25;;;;;18.42;71.33;101661.34;5077116;27;45490;-77
2021/10/19 02:05:16;;;;;;;;;8.75;7.75;;;;;18.42;71.80;101650.84;5076157;28;45344;-77
2021/10/19 02:07:42;;;;;;;;;9.75;8.25;;;;;18.37;71.60;101645.50;5076387;28;45406;-77
2021/10/19 02:10:09;;;;;;;;;10.50;10.25;;;;;18.35;71.55;101639.34;5077022;28;45384;-77
2021/10/19 02:12:35;;;;;;;;;15.25;13.00;;;;;18.38;71.50;101649.03;5077222;27;45309;-77
2021/10/19 02:15:01;;;;;;;;;12.25;10.00;;;;;18.42;72.03;101658.72;5076528;28;46279;-77
2021/10/19 02:17:27;;;;;;;;;10.75;9.75;;;;;18.38;71.73;101647.28;5076092;28;45321;-77
2021/10/19 02:19:52;;;;;;;;;10.75;9.25;;;;;18.40;71.70;101652.59;5079949;28;45297;-77
2021/10/19 02:22:18;;;;;;;;;10.25;10.25;;;;;18.40;72.04;101647.34;5082772;28;45510;-77
2021/10/19 02:24:43;;;;;;;;;11.25;10.75;;;;;18.37;72.10;101645.50;5078016;28;46382;-78
2021/10/19 02:27:09;;;;;;;;;9.25;8.00;;;;;18.33;71.90;101629.66;5075829;27;45329;-77
2021/10/19 02:29:35;;;;;;;;;11.75;11.00;;;;;18.40;72.37;101642.97;5076881;27;45363;-77
2021/10/19 02:32:01;;;;;;;;;9.75;9.00;;;;;18.39;72.84;101646.44;5076826;27;45302;-77
2021/10/19 02:34:26;;;;;;;;;12.00;11.50;;;;;18.36;72.79;101640.22;5076273;28;46089;-77
2021/10/19 02:36:52;;;;;;;;;12.00;11.25;;;;;18.33;73.06;101642.75;5058164;28;45442;-78
2021/10/19 02:39:18;;;;;;;;;10.00;10.00;;;;;18.35;73.54;101648.94;5076106;28;45515;-78
2021/10/19 02:41:44;;;;;;;;;10.00;10.00;;;;;18.24;73.36;101628.56;5076554;28;45597;-77
2021/10/19 02:44:10;;;;;;;;;9.00;9.00;;;;;18.29;73.53;101639.19;5075877;28;46404;-78
2021/10/19 02:46:36;;;;;;;;;9.25;9.25;;;;;18.28;73.80;101641.78;5076211;28;45255;-77
2021/10/19 02:49:04;;;;;;;;;8.75;8.75;;;;;18.29;73.45;101635.69;5079595;28;45232;-77
2021/10/19 02:51:30;;;;;;;;;9.50;9.00;;;;;18.29;73.62;101636.56;5061574;28;45264;-78
2021/10/19 02:53:56;;;;;;;;;11.75;9.75;;;;;18.31;73.30;101636.59;5079478;28;45411;-78
2021/10/19 02:56:23;;;;;;;;;10.00;10.00;;;;;18.30;73.06;101638.34;5079402;28;45829;-78
2021/10/19 02:58:49;;;;;;;;;10.50;9.50;;;;;18.28;73.45;101629.53;5079796;28;45347;-78
2021/10/19 03:01:15;;;;;;;;;12.50;9.50;;;;;18.30;73.49;101635.72;5061343;28;45633;-78
2021/10/19 03:03:40;;;;;;;;;11.00;9.75;;;;;18.26;73.15;101625.97;5079308;28;45402;-77
2021/10/19 03:06:06;;;;;;;;;12.75;11.00;;;;;18.31;73.32;101633.97;5079474;27;45276;-77
2021/10/19 03:08:34;;;;;;;;;10.75;9.00;;;;;18.27;73.20;101629.50;5080378;28;45237;-79
2021/10/19 03:11:01;;;;;;;;;12.25;10.25;;;;;18.19;73.43;101631.91;5083332;27;45233;-79
2021/10/19 03:13:28;;;;;;;;;10.50;8.25;;;;;18.29;73.13;101647.03;5080701;27;45462;-79
2021/10/19 03:15:55;;;;;;;;;9.00;7.75;;;;;18.26;73.56;101639.09;5079274;28;45484;-78
2021/10/19 03:18:21;;;;;;;;;10.75;10.50;;;;;18.25;73.26;101634.69;5079250;27;45216;-78
2021/10/19 03:20:47;;;;;;;;;12.25;9.75;;;;;18.23;73.45;101628.53;5079612;28;45228;-78
2021/10/19 03:23:12;;;;;;;;;13.75;10.25;;;;;18.27;73.69;101637.38;5078889;27;46056;-76
2021/10/19 03:25:38;;;;;;;;;12.00;7.50;;;;;18.27;73.84;101646.09;5060954;28;45430;-78
2021/10/19 03:28:04;;;;;;;;;10.25;8.75;;;;;18.21;73.33;101631.09;5079378;28;45858;-78
2021/10/19 03:30:29;;;;;;;;;7.75;7.75;;;;;18.26;73.23;101641.72;5079123;28;45236;-77
2021/10/19 03:32:55;;;;;;;;;10.00;8.25;;;;;18.27;73.42;101640.88;5079026;28;45942;-78
2021/10/19 03:35:21;;;;;;;;;10.50;10.00;;;;;18.30;73.76;101648.81;5078731;27;45446;-79
2021/10/19 03:37:48;;;;;;;;;8.00;8.00;;;;;18.30;73.91;101643.56;5079112;28;45492;-80
2021/10/19 03:40:13;;;;;;;;;7.00;7.00;;;;;18.23;74.01;101639.91;5060887;28;45429;-79
2021/10/19 03:42:41;;;;;;;;;10.50;10.50;;;;;18.27;74.03;101646.09;5079019;28;45714;-78
2021/10/19 03:45:10;;;;;;;;;11.25;10.25;;;;;18.29;74.70;101662.78;5079170;28;45303;-79
2021/10/19 03:47:35;;;;;;;;;12.75;10.25;;;;;18.27;73.96;101655.72;5079185;27;45401;-79
2021/10/19 03:50:01;;;;;;;;;11.00;10.00;;;;;18.30;74.47;101661.94;5079073;27;45474;-79
2021/10/19 03:52:27;;;;;;;;;11.75;10.75;;;;;18.23;74.56;101652.13;5078507;27;45389;-80
2021/10/19 03:54:53;;;;;;;;;9.00;8.00;;;;;18.29;74.46;101657.53;5060537;28;45477;-80
2021/10/19 03:57:18;;;;;;;;;9.00;7.75;;;;;18.29;74.91;101654.91;5079152;27;45367;-79
2021/10/19 03:59:44;;;;;;;;;11.25;10.25;;;;;18.32;74.71;101657.63;5086168;28;45656;-79
2021/10/19 04:02:09;;;;;;;;;10.00;10.00;;;;;18.33;74.66;101661.13;5084212;27;45997;-79
2021/10/19 04:04:36;;;;;;;;;10.50;8.50;;;;;18.31;74.83;101653.22;5079805;28;45340;-79
2021/10/19 04:07:02;;;;;;;;;9.00;8.50;;;;;18.26;74.71;101657.44;5083261;28;45311;-79
2021/10/19 04:09:28;;;;;;;;;8.25;7.00;;;;;18.30;74.09;101658.44;5078724;27;45247;-78
2021/10/19 04:11:54;;;;;;;;;10.75;8.25;;;;;18.25;73.99;101656.56;5078590;28;45339;-80
2021/10/19 04:14:19;;;;;;;;;10.75;9.00;;;;;18.29;74.26;101664.53;5078357;28;45351;-79
2021/10/19 04:16:45;;;;;;;;;8.25;7.00;;;;;18.19;74.49;101642.41;5078515;27;45445;-78
2021/10/19 04:19:11;;;;;;;;;8.00;7.25;;;;;18.28;74.42;101662.75;5078330;27;45655;-78
2021/10/19 04:21:36;;;;;;;;;11.25;10.50;;;;;18.27;74.28;101666.22;5078337;27;45926;-79
2021/10/19 04:24:02;;;;;;;;;11.25;10.25;;;;;18.28;74.13;101670.59;5078194;28;45354;-79
2021/10/19 04:26:27;;;;;;;;;9.75;9.00;;;;;18.25;74.23;101664.44;5077760;28;45276;-77
2021/10/19 04:28:53;;;;;;;;;9.25;9.25;;;;;18.28;74.04;101670.59;5078488;28;45637;-77
2021/10/19 04:31:19;;;;;;;;;12.00;9.50;;;;;18.27;74.39;101672.31;5077817;27;45541;-77
2021/10/19 04:33:44;;;;;;;;;9.00;8.25;;;;;18.30;74.13;101677.66;5076742;28;45300;-78
2021/10/19 04:36:10;;;;;;;;;9.50;7.25;;;;;18.30;73.91;101668.91;5077879;27;45562;-78
2021/10/19 04:38:36;;;;;;;;;8.75;8.75;;;;;18.28;74.50;101661.00;5078584;28;45289;-78
2021/10/19 04:41:02;;;;;;;;;13.00;9.75;;;;;18.31;74.25;101668.03;5077840;27;46120;-78
2021/10/19 04:43:28;;;;;;;;;8.50;8.50;;;;;18.33;73.83;101664.63;5077781;28;45841;-78
2021/10/19 04:45:54;;;;;;;;;9.25;8.25;;;;;18.32;73.86;101667.19;5078025;27;45180;-79
2021/10/19 04:48:21;;;;;;;;;10.00;8.50;;;;;18.32;73.70;101664.56;5083414;28;45587;-79
2021/10/19 04:50:46;;;;;;;;;10.25;8.50;;;;;18.33;73.46;101668.97;5058878;28;46441;-79
2021/10/19 04:53:12;;;;;;;;;9.25;7.00;;;;;18.31;73.61;101663.72;5058473;28;45542;-79
2021/10/19 04:55:38;;;;;;;;;7.25;6.00;;;;;18.25;73.43;101651.31;5057909;28;45391;-79
2021/10/19 04:58:03;;;;;;;;;10.75;9.50;;;;;18.24;73.60;101667.03;5057774;28;45372;-80
2021/10/19 05:00:29;;;;;;;;;9.25;7.75;;;;;18.35;73.54;101672.53;5057064;28;45418;-80
2021/10/19 05:02:56;;;;;;;;;12.00;10.00;;;;;18.35;73.84;101677.78;5057263;28;45330;-80
2021/10/19 05:05:21;;;;;;;;;9.00;7.25;;;;;18.35;73.46;101672.53;5057271;28;45320;-81
2021/10/19 05:07:47;;;;;;;;;12.00;8.75;;;;;18.35;73.10;101662.03;5057480;28;45277;-79
2021/10/19 05:10:14;;;;;;;;;8.25;7.50;;;;;18.40;73.56;101668.31;5055870;28;45344;-80
2021/10/19 05:12:40;;;;;;;;;12.00;9.50;;;;;18.38;72.99;101655.16;5057115;28;45638;-79
2021/10/19 05:15:07;;;;;;;;;8.50;6.75;;;;;18.44;73.27;101672.78;5057392;28;45343;-80
2021/10/19 05:17:32;;;;;;;;;6.25;6.25;;;;;18.43;72.76;101664.88;5057407;28;45311;-79
2021/10/19 05:19:58;;;;;;;;;6.50;6.50;;;;;18.43;72.67;101671.00;5056900;28;45435;-80
2021/10/19 05:22:24;;;;;;;;;9.50;7.50;;;;;18.46;72.60;101670.22;5056833;28;45271;-80
2021/10/19 05:24:50;;;;;;;;;8.50;7.75;;;;;18.34;72.81;101650.69;5057211;28;45466;-80
2021/10/19 05:27:16;;;;;;;;;7.00;7.00;;;;;18.43;72.48;101680.59;5038735;28;45473;-81
2021/10/19 05:29:41;;;;;;;;;9.00;8.25;;;;;18.39;73.06;101671.78;5056826;28;46337;-81
2021/10/19 05:32:07;;;;;;;;;10.50;10.00;;;;;18.36;72.70;101682.19;5057366;28;45269;-80
2021/10/19 05:34:33;;;;;;;;;10.25;9.25;;;;;18.26;72.47;101665.31;5056723;28;45334;-80
2021/10/19 05:36:58;;;;;;;;;11.00;9.75;;;;;18.27;72.89;101668.81;5065252;28;45542;-81
2021/10/19 05:39:24;;;;;;;;;10.75;10.25;;;;;18.27;72.73;101671.44;5062008;28;46676;-80
2021/10/19 05:41:49;;;;;;;;;13.75;8.00;;;;;18.24;72.76;101673.13;5055056;28;45394;-81
2021/10/19 05:44:15;;;;;;;;;9.25;8.00;;;;;18.23;72.85;101679.22;5056030;28;45440;-80
2021/10/19 05:46:41;;;;;;;;;16.75;11.75;;;;;18.19;73.01;101666.00;5056159;28;45458;-79
2021/10/19 05:49:07;;;;;;;;;13.00;11.25;;;;;18.21;72.72;101672.16;5055291;28;46039;-82
2021/10/19 05:51:32;;;;;;;;;11.75;8.50;;;;;18.18;72.83;101666.84;5055681;28;45663;-81
2021/10/19 05:53:59;;;;;;;;;10.75;10.75;;;;;18.16;72.75;101663.28;5056047;28;45467;-80
2021/10/19 05:56:24;;;;;;;;;12.50;10.00;;;;;18.14;72.61;101659.75;5055001;28;45401;-81
2021/10/19 05:58:50;;;;;;;;;12.00;10.75;;;;;18.16;72.82;101672.03;5056524;28;45326;-78
2021/10/19 06:01:15;;;;;;;;;10.25;9.75;;;;;18.13;72.84;101671.09;5060979;28;45218;-82
2021/10/19 06:03:41;;;;;;;;;10.75;9.25;;;;;18.13;72.82;101660.59;5060169;28;45360;-83
2021/10/19 06:06:12;;;;;;;;;10.75;9.25;;;;;18.12;73.01;101669.31;5055176;28;45591;-78
2021/10/19 06:08:37;;;;;;;;;15.00;12.50;;;;;18.10;72.84;101667.53;5056822;28;46361;-85
2021/10/19 06:11:03;;;;;;;;;10.50;8.25;;;;;18.03;73.02;101662.94;5060064;28;45470;-84
2021/10/19 06:13:30;;;;;;;;;13.25;12.00;;;;;17.93;73.18;101656.53;5061010;28;45277;-89
2021/10/19 06:15:56;;;;;;;;;11.50;10.25;;;;;18.01;73.37;101675.13;5049849;28;45359;-84
2021/10/19 06:18:24;;;;;;;;;9.50;8.00;;;;;18.00;73.35;101673.34;5055883;28;45603;-85
2021/10/19 06:20:53;;;;;;;;;11.75;8.75;;;;;17.99;73.40;101674.19;5039386;28;45699;-80
2021/10/19 06:23:19;;;;;;;;;11.25;8.25;;;;;18.01;73.67;101684.72;5045033;28;45453;-81
2021/10/19 06:25:48;;;;;;;;;10.50;9.25;;;;;18.00;73.14;101696.94;5067983;28;45812;-82
2021/10/19 06:28:13;;;;;;;;;11.00;10.00;;;;;17.91;73.59;101680.94;5063901;28;45813;-84
2021/10/19 06:30:39;;;;;;;;;8.50;8.50;;;;;17.84;73.45;101661.53;5058529;28;45313;-83
2021/10/19 06:33:05;;;;;;;;;11.00;10.50;;;;;17.99;73.70;101683.78;5043314;28;45379;-89
2021/10/19 06:35:30;;;;;;;;;11.75;9.75;;;;;17.98;73.82;101688.13;5043510;28;45600;-86
2021/10/19 06:37:56;;;;;;;;;10.50;9.00;;;;;17.86;73.46;101666.78;5062047;28;45804;-85
2021/10/19 06:40:22;;;;;;;;;11.00;9.75;;;;;18.02;73.71;101691.72;5064455;28;45298;-89
2021/10/19 06:42:47;;;;;;;;;12.00;10.25;;;;;17.90;73.36;101672.16;5060823;28;45389;-90
2021/10/19 06:45:13;;;;;;;;;11.50;9.75;;;;;18.00;73.20;101680.31;5059659;28;45383;-83
2021/10/19 06:47:39;;;;;;;;;11.00;10.50;;;;;18.02;73.29;101681.25;5056640;28;45809;-83
2021/10/19 06:50:06;;;;;;;;;11.00;10.25;;;;;18.04;73.24;101677.81;5058008;28;45400;-88
2021/10/19 06:52:33;;;;;;;;;8.50;8.00;;;;;17.98;73.40;101663.69;5057178;28;45374;-87
2021/10/19 06:54:59;;;;;;;;;11.25;11.25;;;;;18.09;73.28;101685.81;5038717;28;46102;-85
2021/10/19 06:57:27;;;;;;;;;12.75;12.00;;;;;18.10;73.41;101690.19;5055727;28;46551;-86
2021/10/19 06:59:52;;;;;;;;;14.00;11.75;;;;;18.10;72.91;101698.97;5060476;28;45276;-85
2021/10/19 07:02:18;;;;;;;;;14.75;9.75;;;;;18.04;73.54;101693.53;5061661;28;45331;-86
2021/10/19 07:04:44;;;;;;;;;13.50;11.25;;;;;18.07;73.15;101705.88;5059256;28;45451;-85
2021/10/19 07:07:09;;;;;;;;;11.75;10.25;;;;;18.02;73.02;101690.00;5034939;28;46952;-83
2021/10/19 07:09:35;;;;;;;;;11.25;10.00;;;;;18.02;72.92;101692.63;5050481;28;45392;-84
2021/10/19 07:12:03;;;;;;;;;9.75;8.75;;;;;18.12;73.13;101708.63;5031237;28;45273;-80
2021/10/19 07:14:29;;;;;;;;;10.25;10.25;;;;;18.15;73.28;101699.09;5060607;28;45482;-85
2021/10/19 07:16:54;;;;;;;;;12.25;10.75;;;;;18.19;73.17;101700.06;5060779;28;47197;-82
2021/10/19 07:19:20;;;;;;;;;12.50;10.75;;;;;18.15;72.97;101688.63;5058717;28;45705;-84
2021/10/19 07:21:46;;;;;;;;;13.75;11.25;;;;;18.16;72.50;101684.25;5056245;28;45588;-85
2021/10/19 07:24:12;;;;;;;;;13.50;11.50;;;;;18.28;72.02;101710.81;5041318;28;45494;-86
2021/10/19 07:26:37;;;;;;;;;12.50;11.25;;;;;18.23;72.01;101701.94;5064730;28;45601;-86
2021/10/19 07:29:03;;;;;;;;;11.75;11.75;;;;;18.25;72.12;101708.09;5059633;28;45589;-89
2021/10/19 07:31:29;;;;;;;;;12.50;10.50;;;;;18.25;71.86;101709.00;5056983;28;45390;-83
2021/10/19 07:33:54;;;;;;;;;12.25;9.25;;;;;18.23;71.99;101707.19;5056966;28;45660;-82
2021/10/19 07:36:20;;;;;;;;;11.75;11.50;;;;;18.21;72.01;101716.72;5057637;28;46046;-81
2021/10/19 07:38:48;;;;;;;;;12.25;12.25;;;;;18.18;72.02;101717.53;5058248;28;45423;-80
2021/10/19 07:41:13;;;;;;;;;11.00;11.00;;;;;18.18;71.67;101714.00;5058235;28;45702;-79
2021/10/19 07:43:39;;;;;;;;;12.25;11.00;;;;;18.24;71.90;101712.44;5057588;28;45750;-79
2021/10/19 07:46:05;;;;;;;;;14.25;11.50;;;;;18.27;71.29;101719.50;5058410;28;45938;-83
2021/10/19 07:48:30;;;;;;;;;12.25;10.25;;;;;18.28;71.53;101707.31;5057493;28;45344;-79
2021/10/19 07:50:56;;;;;;;;;11.25;11.00;;;;;18.30;71.16;101716.09;5057299;28;45489;-83
2021/10/19 07:53:21;;;;;;;;;12.25;10.00;;;;;18.21;71.23;101699.25;5057010;28;45331;-81
2021/10/19 07:55:47;;;;;;;;;12.25;11.75;;;;;18.25;71.38;101716.84;5057355;28;45852;-82
2021/10/19 07:58:13;;;;;;;;;14.00;10.50;;;;;18.20;71.18;101707.09;5057812;28;45417;-84
2021/10/19 08:00:39;;;;;;;;;14.00;12.75;;;;;18.23;71.18;101723.78;5057274;28;45360;-80
2021/10/19 08:03:04;;;;;;;;;14.00;11.00;;;;;18.20;71.25;101721.06;5065173;28;45339;-82
2021/10/19 08:05:30;;;;;;;;;10.75;9.50;;;;;18.11;71.29;101718.19;5061879;28;46158;-81
2021/10/19 08:08:09;;;;;;;;;11.50;11.50;;;;;18.19;71.35;101736.75;5058954;28;45452;-83
2021/10/19 08:10:36;;;;;;;;;13.00;11.75;;;;;18.12;70.86;101729.59;5059519;28;45263;-82
2021/10/19 08:13:02;;;;;;;;;12.25;11.25;;;;;18.13;71.31;101727.00;5058245;28;45325;-82
2021/10/19 08:15:28;;;;;;;;;16.50;12.25;;;;;18.14;70.99;101739.25;5057421;28;45857;-81
2021/10/19 08:17:53;;;;;;;;;11.00;11.00;;;;;18.07;70.69;101730.31;5057932;28;45465;-81
2021/10/19 08:20:19;;;;;;;;;14.00;11.25;;;;;18.15;70.63;101741.03;5057330;28;45350;-80
2021/10/19 08:22:45;;;;;;;;;11.50;9.25;;;;;18.17;70.53;101752.47;5058108;28;45355;-85
2021/10/19 08:25:12;;;;;;;;;15.50;12.50;;;;;18.03;70.83;101727.56;5057336;28;46298;-81
2021/10/19 08:27:41;;;;;;;;;13.50;12.00;;;;;18.19;70.51;101758.63;5057898;28;45206;-82
2021/10/19 08:30:09;;;;;;;;;12.50;12.50;;;;;18.19;70.86;101757.72;5058034;28;45423;-79
2021/10/19 08:32:35;;;;;;;;;14.00;13.25;;;;;18.21;70.78;101753.44;5058170;28;45304;-78
2021/10/19 08:35:01;;;;;;;;;11.75;10.75;;;;;18.24;70.61;101761.38;5057162;28;45996;-81
2021/10/19 08:37:27;;;;;;;;;2.25;0.00;;;;;18.21;70.62;101754.28;5056995;28;45319;-81
2021/10/19 08:39:52;;;;;;;;;14.25;12.25;;;;;18.28;70.78;101771.09;5057428;28;45407;-83
2021/10/19 08:42:19;;;;;;;;;8.75;8.75;;;;;18.16;70.87;101747.16;5038752;28;45720;-79
2021/10/19 08:44:47;;;;;;;;;9.75;9.75;;;;;18.25;70.63;101763.13;5057276;28;45394;-82
2021/10/19 08:47:13;;;;;;;;;11.50;11.50;;;;;18.28;70.19;101760.59;5056797;28;45449;-79
2021/10/19 08:49:40;;;;;;;;;12.75;11.00;;;;;18.23;70.17;101750.00;5056932;28;45459;-78
2021/10/19 08:52:06;;;;;;;;;10.75;9.75;;;;;18.37;69.96;101760.84;5062554;28;45212;-78
2021/10/19 08:54:31;;;;;;;;;13.00;12.00;;;;;18.43;70.10;101760.16;5063488;28;45243;-80
2021/10/19 08:56:57;;;;;;;;;13.00;11.50;;;;;18.52;70.11;101749.91;5059383;28;45212;-79
2021/10/19 08:59:24;;;;;;;;;11.75;11.75;;;;;18.53;69.64;101762.16;5057171;28;45280;-77
2021/10/19 09:01:56;;;;;;;;;11.50;11.50;;;;;18.49;69.66;101751.56;5057120;28;45351;-81
2021/10/19 09:04:27;;;;;;;;;14.25;13.00;;;;;18.48;69.57;101747.16;5056677;28;45389;-80
2021/10/19 09:06:53;;;;;;;;;12.50;9.25;;;;;18.43;69.08;101746.16;5038354;28;45458;-79
2021/10/19 09:09:24;;;;;;;;;12.25;11.50;;;;;18.44;69.92;101737.44;5056661;28;45497;-79
2021/10/19 09:11:52;;;;;;;;;11.25;11.25;;;;;18.42;69.19;101750.50;5038715;28;45494;-79
2021/10/19 09:14:20;;;;;;;;;13.50;11.50;;;;;18.41;68.73;101746.13;5056212;28;45943;-77
2021/10/19 09:16:49;;;;;;;;;13.25;12.50;;;;;18.40;69.47;101739.09;5037856;28;45253;-78
2021/10/19 09:19:17;;;;;;;;;11.00;10.25;;;;;18.38;69.09;101739.03;5056093;28;45482;-78
2021/10/19 09:21:52;;;;;;;;;13.00;12.00;;;;;18.39;69.29;101753.06;5056533;28;45479;-79
2021/10/19 09:24:30;;;;;;;;;12.00;10.50;;;;;18.38;69.45;101757.41;5056214;28;46541;-79
2021/10/19 09:27:09;;;;;;;;;4.75;4.50;;;;;18.35;69.64;101743.31;5057170;28;45443;-79
2021/10/19 09:29:46;;;;;;;;;11.75;9.75;;;;;18.38;69.67;101759.16;5058461;28;45407;-79
2021/10/19 09:32:13;;;;;;;;;14.50;12.25;;;;;18.34;69.90;101745.06;5056742;28;45478;-79
2021/10/19 09:34:41;;;;;;;;;15.75;13.75;;;;;18.38;68.99;101746.03;5056027;28;45498;-78
2021/10/19 09:37:10;;;;;;;;;13.00;10.25;;;;;18.45;69.57;101747.09;5055867;28;45743;-79
2021/10/19 09:39:41;;;;;;;;;14.25;12.25;;;;;18.36;69.46;101734.63;5056836;28;45441;-78
2021/10/19 09:42:22;;;;;;;;;12.00;11.00;;;;;18.45;69.02;101747.97;5059170;28;45228;-80
2021/10/19 09:44:59;;;;;;;;;14.00;11.50;;;;;18.48;69.25;101750.69;5058022;28;45449;-80
2021/10/19 09:47:36;;;;;;;;;17.50;17.50;;;;;18.49;69.19;101748.94;5056212;28;45404;-78
2021/10/19 09:50:06;;;;;;;;;11.50;11.00;;;;;18.50;69.32;101749.00;5054450;28;45485;-79
2021/10/19 09:52:39;;;;;;;;;15.00;10.50;;;;;18.51;69.61;101755.13;5054601;28;45410;-78
2021/10/19 09:55:11;;;;;;;;;12.75;11.25;;;;;18.53;69.51;101753.44;5054380;28;45710;-78
2021/10/19 09:57:38;;;;;;;;;11.75;10.00;;;;;18.53;69.66;101750.81;5054185;28;45465;-77
2021/10/19 10:00:05;;;;;;;;;12.75;11.25;;;;;18.60;69.66;101750.13;5056459;28;45255;-77
2021/10/19 10:02:31;;;;;;;;;11.25;11.25;;;;;18.67;69.38;101762.56;5037543;28;45579;-77
2021/10/19 10:04:59;;;;;;;;;11.75;11.25;;;;;18.70;68.94;101743.38;5055642;28;45328;-77
2021/10/19 10:07:30;;;;;;;;;14.50;11.50;;;;;18.72;68.59;101739.06;5055506;28;45444;-77
2021/10/19 10:09:58;;;;;;;;;12.75;11.25;;;;;18.75;69.38;101739.13;5055786;28;45761;-77
2021/10/19 10:12:32;;;;;;;;;10.25;10.25;;;;;18.82;69.51;101741.09;5037537;28;45605;-77
2021/10/19 10:14:58;;;;;;;;;15.00;13.00;;;;;18.82;69.18;101734.94;5055791;28;45336;-80
2021/10/19 10:17:24;;;;;;;;;11.75;11.75;;;;;18.87;69.16;101738.59;5054920;28;45354;-78
2021/10/19 10:19:51;;;;;;;;;9.50;9.50;;;;;18.93;69.34;101745.72;5054645;28;45469;-79
2021/10/19 10:22:24;;;;;;;;;13.00;10.75;;;;;18.96;68.86;101741.47;5036574;28;45451;-81
2021/10/19 10:25:02;;;;;;;;;14.00;12.50;;;;;18.92;68.72;101728.19;5038075;28;45413;-83
2021/10/19 10:27:28;;;;;;;;;13.50;12.75;;;;;19.02;68.79;101735.47;5055942;28;45268;-88
2021/10/19 10:29:54;;;;;;;;;15.00;13.25;;;;;19.03;68.21;101727.63;5055673;28;45588;-81
2021/10/19 10:32:22;;;;;;;;;11.50;9.50;;;;;19.08;68.31;101730.38;5064859;28;45396;-81
2021/10/19 10:35:17;;;;;;;;;16.50;15.25;;;;;19.10;68.37;101722.56;5041968;28;47892;-81
2021/10/19 10:37:57;;;;;;;;;15.75;13.25;;;;;19.18;68.20;101718.38;5055816;28;45682;-80
2021/10/19 10:40:25;;;;;;;;;12.50;12.50;;;;;19.21;68.48;101720.16;5056236;28;45268;-79
2021/10/19 10:42:51;;;;;;;;;15.50;11.25;;;;;19.26;67.96;101715.94;5059247;28;45395;-85
2021/10/19 10:45:23;;;;;;;;;12.25;9.75;;;;;19.30;68.12;101709.88;5055859;28;46340;-87
2021/10/19 10:47:57;;;;;;;;;12.50;11.75;;;;;19.28;67.16;101693.19;5038410;28;45417;-84
2021/10/19 10:50:23;;;;;;;;;11.50;11.50;;;;;19.31;67.19;101690.66;5039595;28;45208;-81
2021/10/19 10:52:57;;;;;;;;;11.75;10.00;;;;;19.42;66.56;101704.03;5057834;28;45348;-83
2021/10/19 10:55:23;;;;;;;;;11.50;9.25;;;;;19.46;66.34;101692.72;5056214;28;46222;-84
2021/10/19 10:57:49;;;;;;;;;13.25;11.25;;;;;19.57;65.44;101698.25;5056249;28;45445;-81
2021/10/19 11:00:14;;;;;;;;;11.25;9.00;;;;;19.51;65.75;101677.97;5055865;28;45257;-85
2021/10/19 11:02:40;;;;;;;;;12.75;11.75;;;;;19.48;65.07;101665.66;5039088;28;45411;-82
2021/10/19 11:05:06;;;;;;;;;14.75;11.50;;;;;19.64;65.16;101676.50;5038903;28;46351;-86
2021/10/19 11:07:36;;;;;;;;;15.25;14.25;;;;;19.72;65.47;101687.16;5059158;28;45410;-83
2021/10/19 11:10:14;;;;;;;;;12.50;11.75;;;;;19.76;65.23;101689.03;5056643;28;45477;-84
2021/10/19 11:12:46;;;;;;;;;13.00;11.50;;;;;19.80;64.67;101680.31;5059098;28;45273;-87